createdAt,value
2018-07-11T00:02:20.829Z,55.46
2018-07-11T00:04:50.801Z,55.36
2018-07-11T00:07:20.766Z,55.21
2018-07-11T00:09:50.541Z,55.17
2018-07-11T00:12:20.405Z,56.81
2018-07-11T00:14:50.199Z,57.39
2018-07-11T00:17:19.979Z,56.67
2018-07-11T00:19:49.821Z,56.39
2018-07-11T00:22:19.519Z,57.65
2018-07-11T00:24:49.270Z,57.24
2018-07-11T00:27:19.247Z,57.08
2018-07-11T00:29:49.180Z,57.19
2018-07-11T00:32:19.137Z,58.60
2018-07-11T00:34:48.909Z,57.42
2018-07-11T00:37:18.891Z,59.62
2018-07-11T00:39:48.987Z,58.09
2018-07-11T00:42:18.858Z,57.46
2018-07-11T00:44:48.896Z,57.00
2018-07-11T00:47:19.418Z,57.60
2018-07-11T00:49:49.201Z,57.97
2018-07-11T00:52:19.851Z,57.67
2018-07-11T00:54:49.737Z,57.57
2018-07-11T00:57:20.906Z,57.76
2018-07-11T00:59:50.772Z,57.58
2018-07-11T01:02:20.906Z,57.76
2018-07-11T01:04:51.061Z,57.56
2018-07-11T01:07:21.935Z,59.44
2018-07-11T01:09:52.037Z,58.57
2018-07-11T01:12:22.012Z,58.00
2018-07-11T01:14:51.962Z,58.48
2018-07-11T01:18:29.783Z,58.57
2018-07-11T01:20:59.591Z,58.75
2018-07-11T01:23:29.414Z,58.10
2018-07-11T01:25:59.507Z,58.48
2018-07-11T01:28:29.388Z,58.49
2018-07-11T01:30:59.299Z,57.75
2018-07-11T01:33:29.142Z,61.25
2018-07-11T01:35:58.976Z,64.32
2018-07-11T01:38:28.735Z,64.62
2018-07-11T01:40:58.625Z,64.75
2018-07-11T01:43:28.624Z,63.74
2018-07-11T01:45:58.395Z,65.96
2018-07-11T01:48:28.706Z,64.28
2018-07-11T01:50:58.848Z,65.96
2018-07-11T01:53:28.890Z,64.83
2018-07-11T01:55:59.238Z,64.02
2018-07-11T01:58:29.340Z,63.77
2018-07-11T02:00:59.432Z,62.60
2018-07-11T02:03:29.578Z,61.79
2018-07-11T02:06:00.299Z,61.94
2018-07-11T02:08:30.386Z,62.05
2018-07-11T02:11:00.472Z,62.51
2018-07-11T02:13:30.513Z,61.63
2018-07-11T02:16:00.950Z,61.40
2018-07-11T02:18:31.325Z,60.94
2018-07-11T02:21:01.933Z,61.93
2018-07-11T02:23:35.171Z,61.75
2018-07-11T02:26:06.090Z,62.46
2018-07-11T02:28:36.203Z,62.00
2018-07-11T02:31:06.247Z,61.25
2018-07-11T02:33:36.134Z,62.01
2018-07-11T02:36:07.466Z,61.99
2018-07-11T02:38:37.428Z,62.06
2018-07-11T02:41:07.343Z,61.51
2018-07-11T02:43:37.404Z,61.96
2018-07-11T02:46:08.092Z,61.79
2018-07-11T02:48:38.303Z,62.08
2018-07-11T02:51:08.314Z,62.18
2018-07-11T02:53:38.130Z,61.60
2018-07-11T02:56:08.838Z,61.85
2018-07-11T02:58:38.785Z,61.59
2018-07-11T03:01:08.648Z,61.52
2018-07-11T03:03:38.598Z,61.65
2018-07-11T03:06:09.234Z,63.12
2018-07-11T03:08:39.915Z,63.82
2018-07-11T03:11:09.973Z,62.91
2018-07-11T03:13:39.733Z,62.88
2018-07-11T03:16:09.919Z,61.44
2018-07-11T03:18:39.909Z,61.73
2018-07-11T03:21:09.786Z,62.50
2018-07-11T03:23:39.718Z,62.86
2018-07-11T03:26:09.623Z,65.08
2018-07-11T03:28:39.423Z,65.85
2018-07-11T03:31:09.321Z,63.35
2018-07-11T03:33:39.305Z,63.22
2018-07-11T03:36:09.177Z,62.19
2018-07-11T03:38:39.175Z,61.27
2018-07-11T03:41:09.024Z,60.99
2018-07-11T03:43:38.809Z,62.87
2018-07-11T03:46:08.894Z,63.01
2018-07-11T03:48:38.871Z,61.72
2018-07-11T03:51:08.908Z,62.59
2018-07-11T03:53:38.858Z,61.12
2018-07-11T03:56:08.689Z,61.96
2018-07-11T03:58:38.522Z,62.99
2018-07-11T04:02:11.216Z,63.87
2018-07-11T04:04:40.950Z,61.81
2018-07-11T04:07:10.742Z,61.75
2018-07-11T04:09:40.741Z,61.98
2018-07-11T04:12:10.531Z,62.05
2018-07-11T04:14:40.350Z,60.47
2018-07-11T04:17:10.214Z,58.94
2018-07-11T04:19:40.032Z,58.46
2018-07-11T04:22:09.946Z,60.16
2018-07-11T04:24:39.902Z,57.73
2018-07-11T04:27:09.854Z,56.89
2018-07-11T04:31:08.862Z,58.67
2018-07-11T04:33:38.780Z,64.01
2018-07-11T04:36:08.758Z,65.19
2018-07-11T04:38:38.448Z,63.52
2018-07-11T04:41:08.416Z,62.69
2018-07-11T04:43:38.339Z,62.78
2018-07-11T04:46:08.258Z,66.40
2018-07-11T04:48:38.417Z,67.66
2018-07-11T04:51:08.378Z,68.04
2018-07-11T04:53:38.924Z,70.02
2018-07-11T04:56:08.828Z,69.46
2018-07-11T04:58:38.685Z,67.65
2018-07-11T05:01:08.498Z,67.43
2018-07-11T05:03:38.973Z,65.25
2018-07-11T05:06:08.777Z,61.64
2018-07-11T05:08:38.605Z,61.44
2018-07-11T05:11:08.568Z,61.23
2018-07-11T05:13:38.428Z,58.10
2018-07-11T05:16:08.349Z,59.43
2018-07-11T05:18:38.263Z,58.38
2018-07-11T05:21:08.223Z,56.83
2018-07-11T05:23:38.071Z,56.35
2018-07-11T05:26:07.908Z,58.05
2018-07-11T05:28:37.696Z,55.13
2018-07-11T05:31:07.557Z,55.20
2018-07-11T05:33:37.411Z,55.16
2018-07-11T05:36:07.313Z,56.53
2018-07-11T05:38:37.129Z,59.72
2018-07-11T05:41:07.015Z,58.44
2018-07-11T05:43:36.832Z,58.52
2018-07-11T05:46:06.736Z,57.71
2018-07-11T05:48:36.530Z,58.05
2018-07-11T05:51:06.419Z,57.57
2018-07-11T05:53:36.462Z,56.89
2018-07-11T05:56:06.241Z,56.54
2018-07-11T05:58:36.250Z,57.38
2018-07-11T06:01:06.010Z,55.68
2018-07-11T06:03:35.813Z,55.58
2018-07-11T06:06:05.706Z,55.76
2018-07-11T06:08:35.503Z,55.73
2018-07-11T06:11:10.643Z,57.30
2018-07-11T06:13:42.345Z,56.24
2018-07-11T06:16:13.000Z,55.06
2018-07-11T06:18:43.433Z,54.64
2018-07-11T06:21:13.275Z,53.62
2018-07-11T06:23:43.724Z,54.74
2018-07-11T06:26:13.745Z,53.32
2018-07-11T06:28:43.571Z,53.17
2018-07-11T06:31:13.406Z,54.18
2018-07-11T06:33:43.377Z,53.06
2018-07-11T06:36:13.531Z,53.03
2018-07-11T06:38:44.020Z,52.50
2018-07-11T06:41:13.885Z,50.75
2018-07-11T06:43:44.717Z,50.08
2018-07-11T06:46:14.618Z,50.28
2018-07-11T06:48:44.778Z,51.31
2018-07-11T06:51:15.341Z,49.79
2018-07-11T06:53:46.371Z,50.88
2018-07-11T06:56:16.740Z,48.78
2018-07-11T06:58:47.464Z,47.45
2018-07-11T07:01:17.911Z,47.37
2018-07-11T07:03:48.132Z,46.93
2018-07-11T07:06:18.080Z,45.43
2018-07-11T07:08:47.914Z,42.74
2018-07-11T07:11:17.790Z,43.51
2018-07-11T07:13:47.539Z,47.36
2018-07-11T07:16:17.459Z,45.82
2018-07-11T07:18:47.278Z,45.17
2018-07-11T07:21:17.135Z,46.29
2018-07-11T07:23:47.139Z,44.16
2018-07-11T07:26:16.992Z,44.10
2018-07-11T07:28:46.887Z,41.44
2018-07-11T07:31:16.792Z,41.13
2018-07-11T07:33:46.663Z,43.06
2018-07-11T07:36:16.482Z,41.53
2018-07-11T07:38:46.438Z,41.07
2018-07-11T07:41:16.250Z,40.71
2018-07-11T07:43:46.277Z,40.85
2018-07-11T07:46:16.207Z,38.77
2018-07-11T07:48:46.193Z,39.80
2018-07-11T07:51:16.297Z,39.32
2018-07-11T07:53:46.477Z,38.31
2018-07-11T07:56:16.654Z,36.98
2018-07-11T07:58:46.638Z,37.50
2018-07-11T08:01:16.638Z,37.42
2018-07-11T08:03:46.978Z,35.72
2018-07-11T08:06:16.951Z,35.51
2018-07-11T08:08:46.810Z,36.85
2018-07-11T08:11:16.675Z,34.03
2018-07-11T08:13:46.797Z,33.56
2018-07-11T08:16:16.694Z,33.61
2018-07-11T08:18:46.511Z,36.20
2018-07-11T08:21:16.504Z,33.01
2018-07-11T08:23:56.939Z,35.44
2018-07-11T08:26:37.451Z,33.16
2018-07-11T08:31:46.219Z,34.02
2018-07-11T08:36:30.889Z,33.03
2018-07-11T08:40:18.676Z,31.26
2018-07-11T08:43:00.270Z,32.42
2018-07-11T08:45:41.921Z,31.42
2018-07-11T08:50:25.778Z,31.21
2018-07-11T08:53:18.269Z,32.44
2018-07-11T08:56:00.404Z,31.67
2018-07-11T09:02:47.930Z,32.43
2018-07-11T09:05:28.304Z,31.61
2018-07-11T09:10:11.022Z,31.11
2018-07-11T09:12:51.421Z,31.88
2018-07-11T09:18:40.795Z,32.35
2018-07-11T09:23:29.976Z,32.57
2018-07-11T09:25:59.991Z,31.48
2018-07-11T09:28:29.659Z,30.10
2018-07-11T09:30:59.638Z,30.35
2018-07-11T09:33:29.450Z,30.41
2018-07-11T09:35:59.744Z,32.83
2018-07-11T09:38:29.496Z,31.82
2018-07-11T09:40:59.513Z,31.24
2018-07-11T09:43:29.613Z,28.92
2018-07-11T09:45:59.957Z,28.68
2018-07-11T09:48:30.601Z,29.14
2018-07-11T09:51:00.934Z,26.81
2018-07-11T09:53:31.232Z,25.95
2018-07-11T09:56:02.258Z,25.49
2018-07-11T09:58:32.985Z,27.94
2018-07-11T10:01:08.396Z,27.26
2018-07-11T10:03:39.210Z,27.19
2018-07-11T10:06:09.961Z,25.49
2018-07-11T10:08:40.338Z,26.31
2018-07-11T10:11:10.633Z,26.67
2018-07-11T10:13:40.968Z,25.45
2018-07-11T10:16:11.364Z,26.12
2018-07-11T10:18:46.889Z,26.85
2018-07-11T10:21:17.182Z,27.58
2018-07-11T10:23:47.656Z,25.76
2018-07-11T10:26:18.870Z,27.84
2018-07-11T10:28:49.057Z,25.51
2018-07-11T10:31:19.468Z,25.96
2018-07-11T10:33:50.012Z,24.22
2018-07-11T10:36:21.485Z,25.08
2018-07-11T10:38:51.740Z,25.74
2018-07-11T10:41:22.017Z,24.26
2018-07-11T10:43:52.516Z,24.84
2018-07-11T10:46:23.654Z,25.99
2018-07-11T10:48:53.850Z,24.18
2018-07-11T10:51:24.058Z,24.01
2018-07-11T10:53:54.559Z,25.09
2018-07-11T10:56:25.276Z,24.74
2018-07-11T10:58:56.165Z,21.96
2018-07-11T11:01:26.449Z,22.57
2018-07-11T11:03:56.939Z,22.58
2018-07-11T11:06:28.600Z,23.13
2018-07-11T11:08:59.271Z,22.57
2018-07-11T11:11:29.574Z,22.34
2018-07-11T11:13:59.947Z,23.93
2018-07-11T11:16:30.956Z,24.12
2018-07-11T11:19:01.660Z,21.56
2018-07-11T11:21:32.231Z,24.21
2018-07-11T11:24:02.597Z,22.30
2018-07-11T11:26:33.127Z,23.06
2018-07-11T11:29:03.644Z,23.12
2018-07-11T11:31:33.817Z,22.21
2018-07-11T11:34:03.931Z,24.46
2018-07-11T11:36:34.982Z,21.62
2018-07-11T11:39:05.636Z,22.59
2018-07-11T11:41:36.014Z,22.19
2018-07-11T11:44:06.372Z,23.35
2018-07-11T11:46:37.571Z,23.47
2018-07-11T11:49:08.118Z,24.45
2018-07-11T11:51:38.847Z,23.19
2018-07-11T11:54:09.353Z,24.70
2018-07-11T11:56:39.902Z,21.90
2018-07-11T11:59:10.446Z,25.05
2018-07-11T12:01:40.811Z,24.31
2018-07-11T12:04:11.286Z,22.95
2018-07-11T12:06:41.855Z,25.72
2018-07-11T12:09:11.535Z,25.69
2018-07-11T12:11:41.920Z,26.46
2018-07-11T12:14:12.251Z,24.80
2018-07-11T12:16:42.742Z,26.14
2018-07-11T12:19:12.576Z,25.64
2018-07-11T12:21:42.429Z,24.85
2018-07-11T12:24:12.422Z,26.62
2018-07-11T12:26:43.674Z,25.90
2018-07-11T12:29:13.498Z,26.13
2018-07-11T12:31:43.305Z,27.03
2018-07-11T12:34:13.053Z,26.93
2018-07-11T12:36:43.701Z,26.10
2018-07-11T12:39:13.478Z,25.35
2018-07-11T12:41:43.282Z,25.31
2018-07-11T12:44:13.076Z,25.44
2018-07-11T12:46:43.055Z,24.82
2018-07-11T12:49:12.975Z,25.39
2018-07-11T12:51:42.778Z,24.49
2018-07-11T12:54:13.157Z,23.92
2018-07-11T12:56:44.003Z,25.09
2018-07-11T12:59:14.560Z,24.48
2018-07-11T13:01:45.371Z,26.64
2018-07-11T13:04:15.873Z,24.82
2018-07-11T13:06:47.541Z,24.60
2018-07-11T13:09:18.152Z,26.16
2018-07-11T13:11:48.349Z,26.54
2018-07-11T13:14:18.519Z,24.94
2018-07-11T13:16:49.941Z,25.02
2018-07-11T13:19:20.660Z,26.02
2018-07-11T13:21:50.886Z,26.02
2018-07-11T13:24:21.236Z,27.03
2018-07-11T13:26:51.808Z,27.34
2018-07-11T13:29:22.255Z,27.91
2018-07-11T13:31:52.185Z,28.06
2018-07-11T13:34:22.410Z,28.64
2018-07-11T13:36:52.561Z,27.46
2018-07-11T13:39:23.708Z,27.86
2018-07-11T13:41:53.917Z,25.92
2018-07-11T13:44:24.562Z,25.36
2018-07-11T13:46:55.761Z,25.80
2018-07-11T13:49:26.066Z,26.28
2018-07-11T13:51:56.760Z,24.78
2018-07-11T13:54:27.253Z,25.64
2018-07-11T13:56:58.851Z,26.12
2018-07-11T13:59:29.133Z,26.75
2018-07-11T14:01:59.437Z,27.95
2018-07-11T14:04:29.968Z,26.29
2018-07-11T14:07:00.626Z,25.17
2018-07-11T14:09:30.418Z,24.60
2018-07-11T14:12:00.444Z,27.38
2018-07-11T14:14:30.936Z,25.47
2018-07-11T14:17:01.774Z,24.73
2018-07-11T14:19:32.263Z,24.11
2018-07-11T14:22:02.773Z,23.47
2018-07-11T14:24:33.088Z,24.94
2018-07-11T14:27:03.956Z,24.47
2018-07-11T14:29:34.628Z,25.27
2018-07-11T14:32:05.090Z,25.06
2018-07-11T14:34:35.488Z,26.36
2018-07-11T14:37:06.091Z,25.84
2018-07-11T14:39:36.074Z,27.67
2018-07-11T14:42:05.929Z,25.96
2018-07-11T14:44:36.055Z,25.75
2018-07-11T14:47:11.059Z,25.86
2018-07-11T14:49:41.162Z,26.10
2018-07-11T14:52:10.918Z,26.79
2018-07-11T14:54:40.897Z,27.53
2018-07-11T14:57:12.021Z,29.03
2018-07-11T14:59:41.925Z,29.05
2018-07-11T15:02:11.837Z,29.86
2018-07-11T15:04:41.959Z,29.34
2018-07-11T15:07:12.203Z,30.34
2018-07-11T15:09:42.079Z,29.52
2018-07-11T15:12:11.801Z,29.85
2018-07-11T15:14:41.727Z,28.87
2018-07-11T15:17:11.519Z,28.34
2018-07-11T15:19:41.337Z,30.36
2018-07-11T15:22:11.344Z,31.13
2018-07-11T15:24:41.246Z,29.69
2018-07-11T15:27:11.048Z,30.25
2018-07-11T15:29:41.684Z,29.52
2018-07-11T15:32:12.187Z,29.24
2018-07-11T15:34:42.317Z,30.29
2018-07-11T15:37:13.235Z,30.75
2018-07-11T15:39:44.020Z,31.12
2018-07-11T15:42:13.854Z,32.80
2018-07-11T15:44:44.302Z,31.18
2018-07-11T15:47:14.696Z,33.15
2018-07-11T15:49:44.598Z,32.55
2018-07-11T15:52:14.420Z,34.50
2018-07-11T15:54:44.494Z,34.12
2018-07-11T15:57:15.485Z,33.79
2018-07-11T15:59:55.826Z,34.27
2018-07-11T16:02:25.783Z,34.61
2018-07-11T16:04:56.014Z,34.44
2018-07-11T16:07:30.501Z,34.99
2018-07-11T16:10:01.080Z,35.67
2018-07-11T16:12:30.967Z,35.11
2018-07-11T16:15:00.747Z,34.58
2018-07-11T16:17:30.570Z,34.70
2018-07-11T16:20:00.452Z,35.10
2018-07-11T16:22:30.387Z,34.85
2018-07-11T16:25:00.278Z,35.79
2018-07-11T16:27:30.307Z,35.85
2018-07-11T16:30:00.081Z,35.46
2018-07-11T16:32:29.863Z,35.39
2018-07-11T16:34:59.731Z,36.19
2018-07-11T16:37:29.596Z,36.15
2018-07-11T16:39:59.481Z,35.82
2018-07-11T16:42:29.542Z,35.51
2018-07-11T16:44:59.508Z,35.66
2018-07-11T16:47:30.374Z,35.50
2018-07-11T16:50:00.460Z,35.38
2018-07-11T16:52:30.918Z,35.47
2018-07-11T16:55:02.123Z,36.07
2018-07-11T16:57:50.635Z,37.82
2018-07-11T17:00:25.051Z,36.33
2018-07-11T17:03:02.203Z,36.21
2018-07-11T17:06:13.701Z,36.89
2018-07-11T17:08:59.106Z,36.96
2018-07-11T17:11:29.754Z,38.04
2018-07-11T17:14:02.302Z,37.36
2018-07-11T17:16:40.212Z,37.82
2018-07-11T17:19:28.262Z,39.33
2018-07-11T17:21:58.919Z,39.01
2018-07-11T17:24:29.029Z,41.02
2018-07-11T17:26:59.883Z,41.14
2018-07-11T17:29:30.830Z,42.91
2018-07-11T17:32:06.675Z,42.62
2018-07-11T17:34:37.116Z,41.19
2018-07-11T17:37:08.316Z,41.36
2018-07-11T17:40:11.549Z,41.88
2018-07-11T17:42:44.049Z,42.07
2018-07-11T17:45:18.080Z,41.20
2018-07-11T17:49:58.180Z,40.48
2018-07-11T17:52:29.210Z,41.40
2018-07-11T17:55:10.144Z,41.41
2018-07-11T17:57:50.045Z,41.00
2018-07-11T18:00:31.123Z,41.74
2018-07-11T18:04:07.786Z,42.04
2018-07-11T18:06:46.898Z,42.30
2018-07-11T18:09:16.731Z,42.53
2018-07-11T18:12:00.579Z,42.87
2018-07-11T18:14:45.231Z,42.14
2018-07-11T18:17:37.362Z,42.49
2018-07-11T18:22:20.862Z,43.79
2018-07-11T18:24:58.713Z,43.40
2018-07-11T18:27:39.332Z,42.36
2018-07-11T18:30:19.199Z,44.73
2018-07-11T18:33:10.257Z,45.38
2018-07-11T18:35:47.753Z,45.19
2018-07-11T18:38:24.145Z,45.02
2018-07-11T18:41:12.196Z,44.81
2018-07-11T18:45:55.221Z,43.81
2018-07-11T18:50:40.966Z,43.58
2018-07-11T18:53:22.300Z,43.77
2018-07-11T18:56:07.798Z,45.11
2018-07-11T18:58:44.657Z,45.08
2018-07-11T19:02:23.550Z,45.22
2018-07-11T19:05:04.361Z,45.21
2018-07-11T19:07:41.608Z,44.95
2018-07-11T19:10:14.304Z,44.81
2018-07-11T19:12:58.132Z,45.65
2018-07-11T19:15:36.792Z,47.59
2018-07-11T19:18:13.910Z,49.33
2018-07-11T19:21:21.556Z,48.85
2018-07-11T19:23:59.881Z,47.33
2018-07-11T19:27:37.936Z,48.80
2018-07-11T19:30:12.032Z,49.42
2018-07-11T19:34:49.550Z,50.49
2018-07-11T19:37:33.347Z,49.11
2018-07-11T19:40:45.598Z,47.93
2018-07-11T19:43:52.635Z,47.16
2018-07-11T19:46:33.239Z,48.77
2018-07-11T19:49:23.183Z,50.08
2018-07-11T19:51:59.948Z,50.74
2018-07-11T19:54:40.452Z,51.34
2018-07-11T19:57:10.488Z,51.05
2018-07-11T19:59:40.264Z,51.14
2018-07-11T20:02:10.992Z,51.54
2018-07-11T20:04:41.084Z,52.11
2018-07-11T20:07:11.093Z,51.59
2018-07-11T20:09:41.324Z,50.62
2018-07-11T20:12:12.087Z,51.64
2018-07-11T20:14:42.058Z,52.00
2018-07-11T20:17:11.803Z,53.43
2018-07-11T20:19:41.738Z,52.45
2018-07-11T20:22:11.862Z,51.56
2018-07-11T20:24:42.037Z,51.08
2018-07-11T20:27:11.790Z,50.27
2018-07-11T20:29:41.727Z,51.14
2018-07-11T20:32:12.466Z,51.28
2018-07-11T20:34:42.261Z,52.00
2018-07-11T20:37:12.106Z,52.28
2018-07-11T20:39:42.007Z,52.11
2018-07-11T20:42:12.406Z,52.01
2018-07-11T20:44:42.275Z,52.33
2018-07-11T20:47:12.162Z,51.56
2018-07-11T20:49:41.885Z,52.55
2018-07-11T20:52:12.436Z,52.99
2018-07-11T20:54:42.217Z,52.73
2018-07-11T20:57:12.059Z,53.49
2018-07-11T20:59:52.533Z,53.11
2018-07-11T21:02:33.943Z,52.61
2018-07-11T21:05:23.165Z,52.26
2018-07-11T21:08:06.953Z,51.59
2018-07-11T21:12:50.860Z,51.57
2018-07-11T21:15:30.443Z,50.64
2018-07-11T21:19:05.279Z,49.47
2018-07-11T21:21:35.902Z,52.52
2018-07-11T21:24:06.821Z,52.74
2018-07-11T21:26:37.165Z,51.47
2018-07-11T21:29:07.990Z,51.30
2018-07-11T21:31:37.919Z,50.63
2018-07-11T21:34:07.768Z,50.28
2018-07-11T21:36:37.594Z,50.71
2018-07-11T21:39:08.247Z,50.78
2018-07-11T21:41:37.982Z,50.25
2018-07-11T21:44:07.596Z,50.43
2018-07-11T21:46:37.521Z,49.52
2018-07-11T21:49:07.293Z,49.18
2018-07-11T21:51:37.064Z,50.56
2018-07-11T21:54:06.914Z,50.24
2018-07-11T21:56:36.667Z,50.84
2018-07-11T21:59:06.546Z,50.23
2018-07-11T22:01:36.322Z,50.57
2018-07-11T22:04:06.181Z,50.13
2018-07-11T22:06:35.976Z,50.90
2018-07-11T22:09:06.127Z,52.65
2018-07-11T22:11:35.758Z,52.78
2018-07-11T22:14:05.902Z,53.23
2018-07-11T22:16:35.723Z,53.47
2018-07-11T22:19:05.638Z,53.88
2018-07-11T22:21:33.721Z,54.16
2018-07-11T22:24:01.827Z,53.34
2018-07-11T22:26:29.812Z,51.83
2018-07-11T22:28:57.909Z,51.73
2018-07-11T22:31:25.996Z,51.86
2018-07-11T22:33:54.029Z,52.56
2018-07-11T22:36:22.114Z,55.03
2018-07-11T22:38:50.126Z,56.97
2018-07-11T22:41:18.216Z,55.52
2018-07-11T22:43:46.297Z,56.92
2018-07-11T22:46:14.338Z,57.12
2018-07-11T22:48:42.424Z,55.30
2018-07-11T22:51:10.515Z,55.56
2018-07-11T22:53:38.515Z,57.30
2018-07-11T22:56:06.638Z,57.10
2018-07-11T23:01:33.401Z,55.53
2018-07-11T23:04:01.438Z,54.27
2018-07-11T23:06:29.477Z,53.62
2018-07-11T23:08:57.629Z,55.40
2018-07-11T23:11:25.577Z,56.97
2018-07-11T23:13:53.613Z,57.53
2018-07-11T23:16:21.962Z,57.36
2018-07-11T23:18:50.060Z,55.32
2018-07-11T23:21:18.152Z,54.47
2018-07-11T23:23:46.188Z,54.93
2018-07-11T23:26:14.275Z,55.39
2018-07-11T23:28:42.398Z,55.18
2018-07-11T23:31:10.478Z,53.16
2018-07-11T23:33:38.494Z,53.14
2018-07-11T23:36:06.593Z,54.13
2018-07-11T23:38:34.652Z,54.57
2018-07-11T23:41:02.686Z,55.10
2018-07-11T23:43:30.728Z,54.16
2018-07-11T23:45:59.239Z,54.96
2018-07-11T23:48:27.292Z,54.23
2018-07-11T23:50:55.374Z,55.01
2018-07-11T23:53:23.415Z,55.50
2018-07-11T23:55:51.455Z,54.84
2018-07-11T23:58:19.563Z,55.07
